createdAt,value
2018-06-10T00:01:10.955Z,19.80
2018-06-10T00:03:40.256Z,19.60
2018-06-10T00:06:09.493Z,19.60
2018-06-10T00:08:38.796Z,19.50
2018-06-10T00:11:08.051Z,19.50
2018-06-10T00:13:39.339Z,19.50
2018-06-10T00:16:08.589Z,19.50
2018-06-10T00:18:37.963Z,19.50
2018-06-10T00:21:07.460Z,19.40
2018-06-10T00:23:36.774Z,19.30
2018-06-10T00:26:06.312Z,19.30
2018-06-10T00:28:41.126Z,19.10
2018-06-10T00:31:10.541Z,19.00
2018-06-10T00:33:39.806Z,18.90
2018-06-10T00:36:09.202Z,18.90
2018-06-10T00:38:38.557Z,19.00
2018-06-10T00:41:07.838Z,19.00
2018-06-10T00:43:37.128Z,19.00
2018-06-10T00:46:06.541Z,19.10
2018-06-10T00:48:35.908Z,19.10
2018-06-10T00:51:05.279Z,19.10
2018-06-10T00:53:34.606Z,19.20
2018-06-10T00:56:13.777Z,19.10
2018-06-10T00:58:43.204Z,19.10
2018-06-10T01:01:12.572Z,19.10
2018-06-10T01:03:41.859Z,19.00
2018-06-10T01:06:11.123Z,19.10
2018-06-10T01:08:40.491Z,19.10
2018-06-10T01:11:09.780Z,19.10
2018-06-10T01:13:39.129Z,19.00
2018-06-10T01:16:08.454Z,19.00
2018-06-10T01:18:37.750Z,19.00
2018-06-10T01:21:07.044Z,19.00
2018-06-10T01:23:36.327Z,19.00
2018-06-10T01:26:05.605Z,19.00
2018-06-10T01:28:34.900Z,19.10
2018-06-10T01:31:04.249Z,19.10
2018-06-10T01:33:33.533Z,19.10
2018-06-10T01:36:02.816Z,18.90
2018-06-10T01:38:32.042Z,18.90
2018-06-10T01:41:01.292Z,18.90
2018-06-10T01:43:30.539Z,18.90
2018-06-10T01:45:59.867Z,18.90
2018-06-10T01:48:29.148Z,18.90
2018-06-10T01:50:58.464Z,18.80
2018-06-10T01:53:27.794Z,18.80
2018-06-10T01:55:57.042Z,18.70
2018-06-10T01:58:26.302Z,18.70
2018-06-10T02:00:55.672Z,18.70
2018-06-10T02:03:24.940Z,18.80
2018-06-10T02:05:54.264Z,18.70
2018-06-10T02:08:23.540Z,18.70
2018-06-10T02:10:52.829Z,18.70
2018-06-10T02:13:22.090Z,18.70
2018-06-10T02:15:51.375Z,18.70
2018-06-10T02:18:20.648Z,18.60
2018-06-10T02:20:49.993Z,18.70
2018-06-10T02:23:19.235Z,18.70
2018-06-10T02:25:48.492Z,18.70
2018-06-10T02:28:17.755Z,18.60
2018-06-10T02:30:47.025Z,18.70
2018-06-10T02:33:16.266Z,18.70
2018-06-10T02:35:45.514Z,18.80
2018-06-10T02:38:14.779Z,18.90
2018-06-10T02:40:44.043Z,18.90
2018-06-10T02:43:13.327Z,18.90
2018-06-10T02:45:42.552Z,18.90
2018-06-10T02:48:11.828Z,19.00
2018-06-10T02:50:41.091Z,19.00
2018-06-10T02:53:10.335Z,19.10
2018-06-10T02:55:39.642Z,19.00
2018-06-10T02:58:09.050Z,19.10
2018-06-10T03:00:38.309Z,19.00
2018-06-10T03:03:07.753Z,19.10
2018-06-10T03:05:36.988Z,19.10
2018-06-10T03:08:06.312Z,19.10
2018-06-10T03:10:35.545Z,19.10
2018-06-10T03:13:04.667Z,19.10
2018-06-10T03:15:33.629Z,19.00
2018-06-10T03:18:02.630Z,19.00
2018-06-10T03:20:31.895Z,18.90
2018-06-10T03:23:01.262Z,19.00
2018-06-10T03:25:30.528Z,18.90
2018-06-10T03:27:59.783Z,19.00
2018-06-10T03:30:29.058Z,19.00
2018-06-10T03:32:58.361Z,19.10
2018-06-10T03:35:27.617Z,19.20
2018-06-10T03:37:56.886Z,19.20
2018-06-10T03:40:26.220Z,19.20
2018-06-10T03:42:55.513Z,19.20
2018-06-10T03:45:24.816Z,19.20
2018-06-10T03:47:54.113Z,19.20
2018-06-10T03:50:23.388Z,19.20
2018-06-10T03:52:52.661Z,19.20
2018-06-10T03:55:21.918Z,19.20
2018-06-10T03:57:51.156Z,19.30
2018-06-10T04:00:20.436Z,19.40
2018-06-10T04:02:49.711Z,19.40
2018-06-10T04:05:18.984Z,19.40
2018-06-10T04:07:48.831Z,19.50
2018-06-10T04:10:18.130Z,19.50
2018-06-10T04:12:47.422Z,19.50
2018-06-10T04:15:17.522Z,19.40
2018-06-10T04:17:46.818Z,19.50
2018-06-10T04:20:16.131Z,19.50
2018-06-10T04:22:45.442Z,19.40
2018-06-10T04:25:14.817Z,19.30
2018-06-10T04:27:44.048Z,19.20
2018-06-10T04:30:13.453Z,19.20
2018-06-10T04:32:42.833Z,19.00
2018-06-10T04:35:12.090Z,19.00
2018-06-10T04:37:41.457Z,19.00
2018-06-10T04:40:10.706Z,18.90
2018-06-10T04:42:40.055Z,18.80
2018-06-10T04:45:09.312Z,18.80
2018-06-10T04:47:38.599Z,18.70
2018-06-10T04:50:07.889Z,18.70
2018-06-10T04:52:37.153Z,18.80
2018-06-10T04:55:06.617Z,18.80
2018-06-10T04:57:35.880Z,18.80
2018-06-10T05:00:05.442Z,18.80
2018-06-10T05:02:34.940Z,18.80
2018-06-10T05:05:04.203Z,18.80
2018-06-10T05:07:33.440Z,18.80
2018-06-10T05:10:02.700Z,18.70
2018-06-10T05:12:32.068Z,18.60
2018-06-10T05:15:01.333Z,18.70
2018-06-10T05:17:30.617Z,18.80
2018-06-10T05:19:59.903Z,18.80
2018-06-10T05:22:29.127Z,18.70
2018-06-10T05:24:58.443Z,18.70
2018-06-10T05:27:27.710Z,18.70
2018-06-10T05:29:56.964Z,18.70
2018-06-10T05:32:26.245Z,18.80
2018-06-10T05:34:55.550Z,18.80
2018-06-10T05:37:24.786Z,18.80
2018-06-10T05:39:54.065Z,18.90
2018-06-10T05:42:23.344Z,18.90
2018-06-10T05:44:52.604Z,19.00
2018-06-10T05:47:22.063Z,19.00
2018-06-10T05:49:51.362Z,18.90
2018-06-10T05:52:20.761Z,18.90
2018-06-10T05:54:50.010Z,18.90
2018-06-10T05:57:19.286Z,19.10
2018-06-10T05:59:48.539Z,19.20
2018-06-10T06:02:17.868Z,19.20
2018-06-10T06:04:47.162Z,19.30
2018-06-10T06:07:16.429Z,19.50
2018-06-10T06:09:45.697Z,19.30
2018-06-10T06:12:14.993Z,19.50
2018-06-10T06:14:44.307Z,19.40
2018-06-10T06:17:13.570Z,19.40
2018-06-10T06:19:42.830Z,19.50
2018-06-10T06:22:12.096Z,19.80
2018-06-10T06:24:41.377Z,19.70
2018-06-10T06:27:10.637Z,19.90
2018-06-10T06:29:39.947Z,19.90
2018-06-10T06:32:09.205Z,20.00
2018-06-10T06:34:38.599Z,20.00
2018-06-10T06:37:07.967Z,20.00
2018-06-10T06:39:37.291Z,20.10
2018-06-10T06:42:06.632Z,19.90
2018-06-10T06:44:37.156Z,19.90
2018-06-10T06:47:06.583Z,20.00
2018-06-10T06:49:35.757Z,20.30
2018-06-10T06:54:33.830Z,20.40
2018-06-10T07:02:00.764Z,20.50
2018-06-10T07:04:30.107Z,21.00
2018-06-10T07:06:59.398Z,21.10
2018-06-10T07:09:28.682Z,20.90
2018-06-10T07:11:57.953Z,21.20
2018-06-10T07:14:27.231Z,21.30
2018-06-10T07:16:56.526Z,21.50
2018-06-10T07:19:25.797Z,21.50
2018-06-10T07:21:55.034Z,21.30
2018-06-10T07:24:25.140Z,21.50
2018-06-10T07:29:23.159Z,21.60
2018-06-10T07:31:52.435Z,22.10
2018-06-10T07:36:50.812Z,21.70
2018-06-10T07:39:20.078Z,21.80
2018-06-10T07:41:49.311Z,22.00
2018-06-10T07:44:18.557Z,21.90
2018-06-10T07:46:47.872Z,22.10
2018-06-10T07:49:17.114Z,22.10
2018-06-10T07:51:46.382Z,21.80
2018-06-10T07:54:15.645Z,21.80
2018-06-10T07:56:44.899Z,21.90
2018-06-10T07:59:14.176Z,22.00
2018-06-10T08:01:43.444Z,22.10
2018-06-10T08:04:12.737Z,22.00
2018-06-10T08:06:42.038Z,22.40
2018-06-10T08:09:11.335Z,22.30
2018-06-10T08:11:40.571Z,22.20
2018-06-10T08:14:09.829Z,22.10
2018-06-10T08:16:39.073Z,22.20
2018-06-10T08:19:08.066Z,22.30
2018-06-10T08:21:37.060Z,22.10
2018-06-10T08:24:06.406Z,22.10
2018-06-10T08:26:35.712Z,22.20
2018-06-10T08:29:05.008Z,22.50
2018-06-10T08:31:34.393Z,23.10
2018-06-10T08:34:03.660Z,23.50
2018-06-10T08:36:32.944Z,23.90
2018-06-10T08:39:02.204Z,25.00
2018-06-10T08:44:00.269Z,24.90
2018-06-10T08:46:29.474Z,25.80
2018-06-10T08:51:27.580Z,26.10
2018-06-10T08:53:56.902Z,26.50
2018-06-10T08:56:26.220Z,27.50
2018-06-10T08:58:55.482Z,26.40
2018-06-10T09:01:24.756Z,27.30
2018-06-10T09:03:54.013Z,27.50
2018-06-10T09:06:23.319Z,27.40
2018-06-10T09:08:53.316Z,27.30
2018-06-10T09:11:22.426Z,27.40
2018-06-10T09:13:51.661Z,27.20
2018-06-10T09:16:20.884Z,28.00
2018-06-10T09:18:50.149Z,28.20
2018-06-10T09:21:19.386Z,27.90
2018-06-10T09:23:48.695Z,26.90
2018-06-10T09:26:17.941Z,26.70
2018-06-10T09:28:47.342Z,26.10
2018-06-10T09:31:16.589Z,27.30
2018-06-10T09:33:45.910Z,27.70
2018-06-10T09:36:15.140Z,28.10
2018-06-10T09:38:44.376Z,27.90
2018-06-10T09:41:13.654Z,27.70
2018-06-10T09:43:42.927Z,27.50
2018-06-10T09:46:12.369Z,27.40
2018-06-10T09:53:39.330Z,25.70
2018-06-10T09:56:08.921Z,27.30
2018-06-10T09:58:38.247Z,28.30
2018-06-10T10:03:36.356Z,28.10
2018-06-10T10:06:05.617Z,27.70
2018-06-10T10:08:34.952Z,27.80
2018-06-10T10:11:04.218Z,28.40
2018-06-10T10:13:33.491Z,27.10
2018-06-10T10:16:02.880Z,27.70
2018-06-10T10:18:32.150Z,27.50
2018-06-10T10:21:01.451Z,27.80
2018-06-10T10:23:30.794Z,28.10
2018-06-10T10:26:00.136Z,28.60
2018-06-10T10:28:29.459Z,28.70
2018-06-10T10:30:58.761Z,28.20
2018-06-10T10:33:28.040Z,28.50
2018-06-10T10:40:55.163Z,29.00
2018-06-10T10:43:24.434Z,29.10
2018-06-10T10:45:53.724Z,28.30
2018-06-10T10:48:24.036Z,27.20
2018-06-10T10:50:53.348Z,26.70
2018-06-10T10:53:22.720Z,26.40
2018-06-10T10:55:58.585Z,26.60
2018-06-10T10:58:27.940Z,27.60
2018-06-10T11:00:57.532Z,28.30
2018-06-10T11:03:26.821Z,28.00
2018-06-10T11:05:56.090Z,27.60
2018-06-10T11:08:25.360Z,26.60
2018-06-10T11:10:54.597Z,26.20
2018-06-10T11:13:23.859Z,26.90
2018-06-10T11:15:53.208Z,27.40
2018-06-10T11:18:22.466Z,27.40
2018-06-10T11:20:51.771Z,27.40
2018-06-10T11:23:21.021Z,26.90
2018-06-10T11:25:50.279Z,26.50
2018-06-10T11:28:19.549Z,26.30
2018-06-10T11:30:48.782Z,27.00
2018-06-10T11:35:46.901Z,26.40
2018-06-10T11:38:16.145Z,26.70
2018-06-10T11:40:46.077Z,26.50
2018-06-10T11:43:15.346Z,26.70
2018-06-10T11:45:45.631Z,26.60
2018-06-10T11:48:15.031Z,26.60
2018-06-10T11:50:44.459Z,26.20
2018-06-10T11:53:13.727Z,25.90
2018-06-10T11:55:43.002Z,25.20
2018-06-10T12:00:41.084Z,23.10
2018-06-10T12:05:39.299Z,21.80
2018-06-10T12:08:08.626Z,21.20
2018-06-10T12:10:37.920Z,20.60
2018-06-10T12:13:07.131Z,20.40
2018-06-10T12:15:36.475Z,20.00
2018-06-10T12:18:05.753Z,18.70
2018-06-10T12:20:35.038Z,18.20
2018-06-10T12:23:04.414Z,18.00
2018-06-10T12:25:33.689Z,18.00
2018-06-10T12:30:31.697Z,19.10
2018-06-10T12:33:00.993Z,20.50
2018-06-10T12:35:30.451Z,20.60
2018-06-10T12:37:59.722Z,20.60
2018-06-10T12:40:28.989Z,20.70
2018-06-10T12:42:58.222Z,20.30
2018-06-10T12:45:27.489Z,20.20
2018-06-10T12:47:56.735Z,20.20
2018-06-10T12:50:25.990Z,20.60
2018-06-10T12:52:55.300Z,20.60
2018-06-10T12:55:24.608Z,20.90
2018-06-10T12:57:53.889Z,21.30
2018-06-10T13:00:23.173Z,20.90
2018-06-10T13:02:52.529Z,21.00
2018-06-10T13:05:21.915Z,21.40
2018-06-10T13:07:51.223Z,22.70
2018-06-10T13:10:20.516Z,22.80
2018-06-10T13:12:49.765Z,23.00
2018-06-10T13:15:19.013Z,23.70
2018-06-10T13:17:48.324Z,23.30
2018-06-10T13:20:17.654Z,23.70
2018-06-10T13:22:46.906Z,23.50
2018-06-10T13:25:16.377Z,23.70
2018-06-10T13:27:45.620Z,24.20
2018-06-10T13:30:14.872Z,24.50
2018-06-10T13:32:44.325Z,24.60
2018-06-10T13:35:13.599Z,25.60
2018-06-10T13:37:42.901Z,25.60
2018-06-10T13:40:12.167Z,26.20
2018-06-10T13:42:41.484Z,26.20
2018-06-10T13:45:10.757Z,26.30
2018-06-10T13:47:40.080Z,25.90
2018-06-10T13:50:09.348Z,26.00
2018-06-10T13:52:38.735Z,26.20
2018-06-10T13:55:08.128Z,26.10
2018-06-10T13:57:37.575Z,26.00
2018-06-10T14:00:06.919Z,25.80
2018-06-10T14:02:36.224Z,26.30
2018-06-10T14:07:35.511Z,27.00
2018-06-10T14:10:04.932Z,26.80
2018-06-10T14:12:34.328Z,26.90
2018-06-10T14:15:03.610Z,27.50
2018-06-10T14:17:32.918Z,27.70
2018-06-10T14:20:02.171Z,27.70
2018-06-10T14:22:31.470Z,28.00
2018-06-10T14:25:00.797Z,28.40
2018-06-10T14:29:58.861Z,27.80
2018-06-10T14:32:28.214Z,27.70
2018-06-10T14:34:57.459Z,27.50
2018-06-10T14:37:26.917Z,27.90
2018-06-10T14:39:56.317Z,27.80
2018-06-10T14:42:25.671Z,27.50
2018-06-10T14:44:54.923Z,26.40
2018-06-10T14:47:24.201Z,26.10
2018-06-10T14:49:53.586Z,26.00
2018-06-10T14:57:20.512Z,25.50
2018-06-10T14:59:49.788Z,25.70
2018-06-10T15:02:19.039Z,26.20
2018-06-10T15:04:48.390Z,26.80
2018-06-10T15:07:17.679Z,26.90
2018-06-10T15:09:46.913Z,27.30
2018-06-10T15:12:16.211Z,27.60
2018-06-10T15:14:45.468Z,27.80
2018-06-10T15:17:14.686Z,27.60
2018-06-10T15:19:43.950Z,27.50
2018-06-10T15:22:13.215Z,28.10
2018-06-10T15:24:42.502Z,28.20
2018-06-10T15:27:11.735Z,28.20
2018-06-10T15:29:41.073Z,28.00
2018-06-10T15:32:11.145Z,27.90
2018-06-10T15:34:40.368Z,27.60
2018-06-10T15:37:09.983Z,27.70
2018-06-10T15:42:08.111Z,27.10
2018-06-10T15:44:37.416Z,27.30
2018-06-10T15:47:06.654Z,27.50
2018-06-10T15:49:35.901Z,26.60
2018-06-10T15:52:05.183Z,25.10
2018-06-10T15:54:34.583Z,24.40
2018-06-10T15:57:04.036Z,24.00
2018-06-10T15:59:34.363Z,24.20
2018-06-10T16:02:03.626Z,24.40
2018-06-10T16:04:32.895Z,24.40
2018-06-10T16:07:02.232Z,24.40
2018-06-10T16:09:31.518Z,24.60
2018-06-10T16:12:01.518Z,24.80
2018-06-10T16:14:30.779Z,25.20
2018-06-10T16:17:00.087Z,24.90
2018-06-10T16:19:29.491Z,24.70
2018-06-10T16:21:58.872Z,25.10
2018-06-10T16:24:28.250Z,24.90
2018-06-10T16:26:57.546Z,24.50
2018-06-10T16:29:26.825Z,25.30
2018-06-10T16:31:56.121Z,25.20
2018-06-10T16:34:25.486Z,24.80
2018-06-10T16:36:54.798Z,24.80
2018-06-10T16:39:24.058Z,24.70
2018-06-10T16:41:53.361Z,24.90
2018-06-10T16:44:22.642Z,25.00
2018-06-10T16:46:51.949Z,24.80
2018-06-10T16:49:21.182Z,25.30
2018-06-10T16:51:50.492Z,25.20
2018-06-10T16:54:19.772Z,24.80
2018-06-10T16:56:48.997Z,24.70
2018-06-10T16:59:18.321Z,25.00
2018-06-10T17:04:16.346Z,24.40
2018-06-10T17:06:45.599Z,24.40
2018-06-10T17:09:14.846Z,24.10
2018-06-10T17:11:44.068Z,23.70
2018-06-10T17:14:13.311Z,23.40
2018-06-10T17:16:42.559Z,23.40
2018-06-10T17:19:11.779Z,23.30
2018-06-10T17:21:41.013Z,23.20
2018-06-10T17:24:10.317Z,23.20
2018-06-10T17:26:39.598Z,23.10
2018-06-10T17:29:08.868Z,23.10
2018-06-10T17:31:38.195Z,23.10
2018-06-10T17:34:07.477Z,23.00
2018-06-10T17:36:36.737Z,22.90
2018-06-10T17:39:09.926Z,23.30
2018-06-10T17:41:39.212Z,23.40
2018-06-10T17:44:08.481Z,23.20
2018-06-10T17:46:37.730Z,23.20
2018-06-10T17:49:06.987Z,23.20
2018-06-10T17:51:36.250Z,22.90
2018-06-10T17:54:05.527Z,22.90
2018-06-10T17:56:34.793Z,23.00
2018-06-10T17:59:04.105Z,23.20
2018-06-10T18:01:33.655Z,23.00
2018-06-10T18:04:02.982Z,22.90
2018-06-10T18:06:32.300Z,22.90
2018-06-10T18:09:01.557Z,23.00
2018-06-10T18:11:30.862Z,23.20
2018-06-10T18:14:00.114Z,22.80
2018-06-10T18:16:29.378Z,22.60
2018-06-10T18:21:27.433Z,22.70
2018-06-10T18:23:56.692Z,22.60
2018-06-10T18:26:25.973Z,22.60
2018-06-10T18:28:55.273Z,22.60
2018-06-10T18:33:54.206Z,22.70
2018-06-10T18:36:23.459Z,22.70
2018-06-10T18:38:52.734Z,22.60
2018-06-10T18:41:21.991Z,22.60
2018-06-10T18:43:51.285Z,22.70
2018-06-10T18:46:20.553Z,22.50
2018-06-10T18:48:49.809Z,22.50
2018-06-10T18:51:19.079Z,22.50
2018-06-10T18:53:48.406Z,22.50
2018-06-10T18:56:17.655Z,22.60
2018-06-10T18:58:46.894Z,22.60
2018-06-10T19:01:16.166Z,22.30
2018-06-10T19:06:14.421Z,22.30
2018-06-10T19:08:43.812Z,22.50
2018-06-10T19:11:13.072Z,22.50
2018-06-10T19:13:42.342Z,22.50
2018-06-10T19:16:11.610Z,22.30
2018-06-10T19:18:40.910Z,22.20
2018-06-10T19:21:10.177Z,22.20
2018-06-10T19:23:39.472Z,22.00
2018-06-10T19:26:08.781Z,22.10
2018-06-10T19:28:38.111Z,21.90
2018-06-10T19:31:07.387Z,22.10
2018-06-10T19:33:36.671Z,22.00
2018-06-10T19:36:06.246Z,22.10
2018-06-10T19:38:36.228Z,22.10
2018-06-10T19:41:05.576Z,22.10
2018-06-10T19:43:34.851Z,22.00
2018-06-10T19:48:32.959Z,21.90
2018-06-10T19:51:02.200Z,21.80
2018-06-10T19:53:31.477Z,21.90
2018-06-10T19:56:00.734Z,21.90
2018-06-10T19:58:30.137Z,21.80
2018-06-10T20:00:59.623Z,21.70
2018-06-10T20:03:28.949Z,21.60
2018-06-10T20:05:58.503Z,21.60
2018-06-10T20:08:27.781Z,21.60
2018-06-10T20:10:57.309Z,21.50
2018-06-10T20:13:26.562Z,21.50
2018-06-10T20:15:55.839Z,21.40
2018-06-10T20:18:25.136Z,21.30
2018-06-10T20:20:54.510Z,21.30
2018-06-10T20:23:23.789Z,21.30
2018-06-10T20:25:53.110Z,21.30
2018-06-10T20:28:22.481Z,21.30
2018-06-10T20:33:20.830Z,21.20
2018-06-10T20:35:50.187Z,21.20
2018-06-10T20:38:19.534Z,21.20
2018-06-10T20:40:48.831Z,21.10
2018-06-10T20:43:18.081Z,21.10
2018-06-10T20:45:47.329Z,21.00
2018-06-10T20:48:16.582Z,21.00
2018-06-10T20:50:45.856Z,20.90
2018-06-10T20:53:15.851Z,20.90
2018-06-10T20:55:45.141Z,20.80
2018-06-10T20:58:14.458Z,20.80
2018-06-10T21:00:44.036Z,20.80
2018-06-10T21:03:13.332Z,20.90
2018-06-10T21:05:42.647Z,20.90
2018-06-10T21:08:12.576Z,20.80
2018-06-10T21:10:41.904Z,20.80
2018-06-10T21:13:11.164Z,20.70
2018-06-10T21:15:40.493Z,20.60
2018-06-10T21:18:09.854Z,20.60
2018-06-10T21:20:39.107Z,20.60
2018-06-10T21:23:08.401Z,20.50
2018-06-10T21:28:06.579Z,20.50
2018-06-10T21:30:35.849Z,20.40
2018-06-10T21:33:05.106Z,20.40
2018-06-10T21:35:34.352Z,20.40
2018-06-10T21:38:03.640Z,20.20
2018-06-10T21:40:32.911Z,20.20
2018-06-10T21:43:02.203Z,20.20
2018-06-10T21:45:31.601Z,20.20
2018-06-10T21:48:00.889Z,20.10
2018-06-10T21:55:27.775Z,20.00
2018-06-10T22:00:27.304Z,19.80
2018-06-10T22:02:56.565Z,19.80
2018-06-10T22:05:25.839Z,19.80
2018-06-10T22:07:55.122Z,19.70
2018-06-10T22:10:24.438Z,19.70
2018-06-10T22:12:53.747Z,19.70
2018-06-10T22:15:23.124Z,19.70
2018-06-10T22:17:52.405Z,19.60
2018-06-10T22:20:21.770Z,19.60
2018-06-10T22:22:51.036Z,19.60
2018-06-10T22:25:20.364Z,19.60
2018-06-10T22:27:49.769Z,19.60
2018-06-10T22:30:19.064Z,19.60
2018-06-10T22:32:48.439Z,19.50
2018-06-10T22:35:17.752Z,19.60
2018-06-10T22:37:47.012Z,19.70
2018-06-10T22:40:16.296Z,19.60
2018-06-10T22:42:45.581Z,19.50
2018-06-10T22:45:14.875Z,19.50
2018-06-10T22:47:44.138Z,19.40
2018-06-10T22:50:13.430Z,19.40
2018-06-10T22:52:42.808Z,19.30
2018-06-10T22:55:12.100Z,19.40
2018-06-10T22:57:41.445Z,19.40
2018-06-10T23:00:10.805Z,19.40
2018-06-10T23:02:40.056Z,19.40
2018-06-10T23:05:09.346Z,19.40
2018-06-10T23:07:39.226Z,19.40
2018-06-10T23:12:37.315Z,19.30
2018-06-10T23:15:06.626Z,19.20
2018-06-10T23:17:35.865Z,19.20
2018-06-10T23:20:05.141Z,19.20
2018-06-10T23:22:34.409Z,19.10
2018-06-10T23:25:03.810Z,19.10
2018-06-10T23:27:33.098Z,19.10
2018-06-10T23:30:02.395Z,19.10
2018-06-10T23:32:31.718Z,19.10
2018-06-10T23:37:30.545Z,19.10
2018-06-10T23:39:59.832Z,19.20
2018-06-10T23:42:29.120Z,19.10
2018-06-10T23:44:58.386Z,19.10
2018-06-10T23:47:27.639Z,19.10
2018-06-10T23:49:56.879Z,19.00
2018-06-10T23:52:26.120Z,19.10
2018-06-10T23:54:55.377Z,19.20
2018-06-10T23:57:24.647Z,19.10
2018-06-10T23:59:53.997Z,19.00
